ADDS METAR Data INFO
IDs: Format: Raw Decoded Include TAF

Data at: 2040 UTC 20 Jul 2018

K5M9 202015Z AUTO 22010G14KT 10SM CLR 33/23 A2983 RMK AO2 T03260228
K5M9 201955Z AUTO 23006KT 10SM CLR 33/23 A2983 RMK AO2 T03250231
K5M9 201935Z AUTO 24007KT 10SM SCT033 SCT090 33/23 A2984 RMK AO2 T03250226
K5M9 201915Z AUTO 23009G14KT 10SM SCT033 BKN090 32/23 A2986 RMK AO2 T03230226
K5M9 201855Z AUTO 24009KT 10SM SCT033 SCT090 32/23 A2986 RMK AO2 T03210228
K5M9 201835Z AUTO 23006KT 10SM CLR 32/23 A2987 RMK AO2 T03190231
K5M9 201815Z AUTO 22006KT 10SM CLR 32/23 A2986 RMK AO2 T03190228
K5M9 201755Z AUTO 23009KT 220V300 10SM CLR 31/23 A2987 RMK AO2 T03140226 10314 20230
K5M9 201735Z AUTO 22007KT 10SM CLR 31/23 A2988 RMK AO2 T03060228
K5M9 201715Z AUTO 23007KT 10SM CLR 30/22 A2989 RMK AO2 T03020223
K5M9 201655Z AUTO 22009KT 10SM CLR 30/22 A2989 RMK AO2 T02960224
K5M9 201635Z AUTO 22005KT 10SM SCT090 29/23 A2989 RMK AO2 T02920226
K5M9 201615Z AUTO 23008G15KT 10SM SCT019 BKN090 28/23 A2990 RMK AO2 T02750227
K5M9 201555Z AUTO 20008KT 170V230 10SM SCT019 SCT100 30/24 A2989 RMK AO2 T02960235
K5M9 201535Z AUTO 23006KT 10SM CLR 29/23 A2988 RMK AO2 T02920234
K5M9 201515Z AUTO 20006KT 10SM CLR 28/23 A2986 RMK AO2 T02830233
K5M9 201455Z AUTO 16005KT 10SM SCT012 SCT020 SCT070 26/23 A2987 RMK AO2 T02640234
K5M9 201435Z AUTO 23007G16KT 10SM BKN012 BKN020 OVC033 26/23 A2992 RMK AO2 T02610228
K5M9 201415Z AUTO 24011G14KT 10SM OVC012 27/23 A2992 RMK AO2 T02670230
K5M9 201355Z AUTO 23008KT 10SM OVC012 26/23 A2990 RMK AO2 T02620227
K5M9 201335Z AUTO 21008G14KT 170V240 10SM BKN014 BKN047 26/23 A2990 RMK AO2 T02580226
K5M9 201315Z AUTO 22006G15KT 10SM SCT016 SCT023 SCT047 26/23 A2991 RMK AO2 T02570225
K5M9 201255Z AUTO 22007KT 10SM CLR 25/23 A2990 RMK AO2 T02490225
K5M9 201235Z AUTO 20005KT 10SM SCT031 24/23 A2989 RMK AO2 T02410225
K5M9 201215Z AUTO 21005KT 10SM SCT031 24/22 A2990 RMK AO2 T02350224
K5M9 201155Z AUTO 20003KT 10SM CLR 23/22 A2990 RMK AO2 T02290221 10229 20210
K5M9 201135Z AUTO 21003KT 10SM SCT033 22/22 A2989 RMK AO2 T02240219
K5M9 201115Z AUTO 21004KT 10SM SCT033 22/22 A2989 RMK AO2 T02200218
K5M9 201055Z AUTO 21004KT 10SM BKN031 22/22 A2988 RMK AO2 T02170217
K5M9 201035Z AUTO 00000KT 10SM CLR 22/22 A2988 RMK AO2 T02150215
K5M9 201015Z AUTO 21003KT 10SM CLR 22/22 A2988 RMK AO2 T02150215
K5M9 200955Z AUTO 21003KT 10SM CLR 22/22 A2987 RMK AO2 T02170217
K5M9 200935Z AUTO 19003KT 10SM CLR 22/22 A2987 RMK AO2 T02200217
K5M9 200915Z AUTO 00000KT 10SM CLR 22/22 A2987 RMK AO2 T02200216
K5M9 200855Z AUTO 19004KT 10SM CLR 22/21 A2988 RMK AO2 T02200214
K5M9 200835Z AUTO 18003KT 10SM CLR 22/21 A2988 RMK AO2 T02200210
K5M9 200815Z AUTO 22003KT 10SM CLR 22/21 A2988 RMK AO2 T02210207
K5M9 200755Z AUTO 20003KT 10SM CLR 22/20 A2987 RMK AO2 T02200202
K5M9 200735Z AUTO 19003KT 10SM CLR 21/20 A2988 RMK AO2 T02130198
K5M9 200715Z AUTO 00000KT 10SM CLR 21/20 A2989 RMK AO2 T02140195
K5M9 200655Z AUTO 00000KT 10SM CLR 21/19 A2989 RMK AO2 T02140192
K5M9 200635Z AUTO 00000KT 10SM CLR 21/19 A2988 RMK AO2 T02100194
K5M9 200615Z AUTO 00000KT 10SM CLR 22/19 A2989 RMK AO2 T02150189
K5M9 200555Z AUTO 00000KT 10SM CLR 22/19 A2989 RMK AO2 T02160189 10281 20216
K5M9 200535Z AUTO 00000KT 10SM CLR 22/19 A2989 RMK AO2 T02190185
K5M9 200455Z AUTO 18003KT 10SM CLR 23/19 A2990 RMK AO2 T02250185
K5M9 200435Z AUTO 19003KT 10SM CLR 23/19 A2991 RMK AO2 T02260186
K5M9 200415Z AUTO 18003KT 10SM CLR 23/19 A2991 RMK AO2 T02310186
K5M9 200355Z AUTO 21005KT 10SM CLR 24/19 A2991 RMK AO2 T02350190
K5M9 200335Z AUTO 18004KT 10SM CLR 24/20 A2991 RMK AO2 T02420195
K5M9 200315Z AUTO 17008KT 10SM SCT040 SCT046 SCT060 26/21 A2990 RMK AO2 T02550205
K5M9 200255Z AUTO 17008KT 10SM BKN044 BKN050 26/21 A2990 RMK AO2 T02590208
K5M9 200235Z AUTO 15003KT 10SM SCT047 SCT050 26/21 A2989 RMK AO2 T02570209
K5M9 200215Z AUTO 14006KT 10SM OVC050 26/21 A2988 RMK AO2 T02610211
K5M9 200155Z AUTO 14005KT 10SM BKN045 26/21 A2988 RMK AO2 T02610205
K5M9 200135Z AUTO 14003KT 10SM SCT045 26/21 A2988 RMK AO2 T02550212
K5M9 200115Z AUTO 14003KT 10SM CLR 26/22 A2989 RMK AO2 T02600215
K5M9 200055Z AUTO 00000KT 10SM CLR 26/22 A2989 RMK AO2 T02640217
K5M9 200035Z AUTO 00000KT 10SM CLR 27/22 A2988 RMK AO2 T02700216
K5M9 200015Z AUTO 13003KT 10SM CLR 27/21 A2988 RMK AO2 T02740213
K5M9 192355Z AUTO 00000KT 10SM CLR 28/22 A2988 RMK AO2 T02800222
K5M9 192335Z AUTO 13003KT 10SM SCT085 28/23 A2988 RMK AO2 T02800226
K5M9 192315Z AUTO 00000KT 10SM BKN085 A2989 RMK AO2
K5M9 192255Z AUTO 12003KT 10SM SCT060 OVC085 A2989 RMK AO2
K5M9 192235Z AUTO 14004KT 10SM BKN060 BKN085 A2990 RMK AO2
K5M9 192215Z AUTO 00000KT 10SM CLR A2991 RMK AO2
K5M9 192155Z AUTO 00000KT 10SM CLR A2991 RMK AO2
K5M9 192135Z AUTO 15005KT 10SM CLR A2990 RMK AO2
K5M9 192115Z AUTO 18004KT 10SM CLR A2991 RMK AO2
K5M9 192055Z AUTO 15004KT 10SM CLR A2991 RMK AO2
K5M9 192035Z AUTO 16003KT 10SM CLR A2992 RMK AO2
K5M9 192015Z AUTO 17003KT 10SM SCT075 A2992 RMK AO2
K5M9 191955Z AUTO 00000KT 10SM SCT047 SCT075 A2993 RMK AO2
K5M9 191935Z AUTO 00000KT 10SM SCT045 BKN075 A2994 RMK AO2
K5M9 191915Z AUTO 17004KT 10SM CLR A2994 RMK AO2
K5M9 191855Z AUTO 00000KT 10SM SCT044 A2994 RMK AO2
K5M9 191835Z AUTO 17004KT 10SM SCT044 A2995 RMK AO2
K5M9 191815Z AUTO 16005KT 10SM CLR A2995 RMK AO2
K5M9 191755Z AUTO 16003KT 10SM CLR A2996 RMK AO2
K5M9 191735Z AUTO 15004KT 10SM SCT120 A2996 RMK AO2
K5M9 191715Z AUTO 16004KT 10SM SCT120 A2997 RMK AO2
K5M9 191655Z AUTO 14003KT 10SM CLR A2997 RMK AO2
K5M9 191635Z AUTO 00000KT 10SM CLR A2997 RMK AO2
K5M9 191615Z AUTO 14004KT 10SM CLR A2997 RMK AO2
K5M9 191555Z AUTO 00000KT 10SM CLR A2997 RMK AO2
K5M9 191535Z AUTO 14004KT 10SM CLR A2998 RMK AO2
K5M9 191515Z AUTO 13003KT 10SM CLR A2997 RMK AO2
K5M9 191455Z AUTO 14004KT 10SM CLR A2998 RMK AO2
K5M9 191435Z AUTO 00000KT 10SM CLR A2998 RMK AO2
K5M9 191415Z AUTO 00000KT 10SM CLR A2999 RMK AO2
K5M9 191355Z AUTO 12003KT 10SM CLR A2999 RMK AO2
K5M9 191335Z AUTO 00000KT 10SM CLR A2999 RMK AO2
K5M9 191315Z AUTO 11004KT 10SM CLR A2999 RMK AO2
K5M9 191255Z AUTO 11003KT 10SM CLR A2999 RMK AO2
K5M9 191235Z AUTO 10003KT 10SM CLR A2999 RMK AO2
K5M9 191215Z AUTO 00000KT 10SM CLR A2999 RMK AO2
K5M9 191155Z AUTO 10003KT 10SM CLR A2998 RMK AO2
K5M9 191135Z AUTO 00000KT 10SM CLR A2998 RMK AO2
K5M9 191115Z AUTO 00000KT 10SM CLR A2998 RMK AO2
K5M9 191055Z AUTO 00000KT 10SM CLR A2997 RMK AO2
K5M9 191035Z AUTO 00000KT 10SM CLR A2998 RMK AO2
K5M9 191015Z AUTO 09003KT 10SM CLR A2998 RMK AO2
K5M9 190955Z AUTO 09003KT 10SM CLR A2997 RMK AO2
K5M9 190935Z AUTO 09003KT 10SM CLR A2997 RMK AO2
K5M9 190915Z AUTO 00000KT 10SM CLR A2997 RMK AO2
K5M9 190855Z AUTO 00000KT 10SM CLR A2997 RMK AO2